Latest Weather Observations for Mandurah

IDW60801

Issued at 2:05 pm WST Wednesday 22 October 2014 (issued every 30 minutes, with the page automatically refreshed every 10 minutes)

About weather observations | Map of weather stations | Latest weather observations for WA | Other Formats
Station Details ID: 009977 Name: MANDURAH Lat: -32.52 Lon: 115.71 Height: 3.0 m
Data from the previous 72 hours. | See also: Recent months at Mandurah
Date/Time
WST
Temp
°C
App
Temp
°C
Dew
Point
Rel
Hum
%
Delta-T
°C
Wind Press
QNH
hPa
Press
MSL
hPa
Rain
since 9 am
mm
Dir
 
Spd
km/h
Gust
km/h
Spd
kts
Gust
kts
22/02:00pm 23.1 20.0 15.7 63 4.5 WNW 26 33 14 18 1010.6 1010.6 0.0
22/01:30pm 24.3 22.7 16.0 60 5.0 W 19 24 10 13 1010.3 1010.3 0.0
22/01:00pm 24.9 23.2 14.7 53 6.1 W 17 22 9 12 1010.6 1010.6 0.0
22/12:30pm 25.0 23.4 15.0 53 6.0 WNW 17 20 9 11 1011.1 1011.1 0.0
22/12:00pm 27.7 24.1 14.3 43 8.0 N 26 32 14 17 1011.3 1011.3 0.0
22/11:30am 27.5 24.3 14.2 44 8.0 NNE 24 33 13 18 1011.6 1011.6 0.0
22/11:00am 27.1 23.0 12.7 41 8.4 NNE 26 39 14 21 1012.1 1012.1 0.0
22/10:30am 26.1 23.1 13.6 46 7.4 NNE 22 37 12 20 1012.8 1012.8 0.0
22/10:19am 24.8 20.6 13.4 49 6.7 NNE 28 33 15 18 1013.2 1013.2 0.0
22/10:00am 23.6 23.3 14.3 56 5.5 N 9 15 5 8 1013.7 1013.7 0.0
22/09:30am 23.8 22.5 13.6 52 5.9 N 13 33 7 18 1014.2 1014.2 0.0
22/09:00am 22.8 21.3 14.1 58 5.1 N 15 20 8 11 1014.5 1014.5 -
22/08:30am 22.6 22.0 13.4 56 5.3 NNW 9 20 5 11 1015.0 1015.0 -
22/08:00am 22.0 20.3 12.3 54 5.5 ENE 13 24 7 13 1013.8 1013.8 -
22/07:30am 20.5 17.6 12.2 59 4.6 ENE 19 32 10 17 1013.8 1013.8 -
22/07:00am 18.7 16.5 12.2 66 3.6 E 15 26 8 14 1013.7 1013.7 -
22/06:30am 17.7 15.5 12.2 70 3.0 E 15 28 8 15 1013.6 1013.6 -
22/06:00am 17.4 13.9 12.1 71 2.9 E 22 32 12 17 1013.7 1013.7 -
22/05:30am 17.4 14.5 12.3 72 2.8 E 19 30 10 16 1013.7 1013.7 -
22/05:00am 17.3 14.8 12.2 72 2.8 E 17 30 9 16 1014.0 1014.0 -
22/04:30am 17.3 14.2 12.2 72 2.8 E 20 37 11 20 1014.0 1014.0 -
22/04:00am 17.3 14.1 12.0 71 2.9 E 20 32 11 17 1014.1 1014.1 -
22/03:30am 17.4 13.9 12.1 71 2.9 E 22 32 12 17 1014.5 1014.5 -
22/03:00am 17.6 14.6 11.9 69 3.1 E 19 32 10 17 1014.8 1014.8 0.0
22/02:30am 17.9 14.7 11.2 65 3.6 E 19 32 10 17 1015.2 1015.2 -
22/02:00am 18.0 16.0 10.1 60 4.2 E 11 26 6 14 1015.6 1015.6 -
22/01:30am 18.0 16.3 9.9 59 4.3 ESE 9 19 5 10 1015.9 1015.9 -
22/01:00am 18.6 16.5 9.7 56 4.7 E 11 26 6 14 1016.3 1016.3 -
22/12:30am 18.1 16.8 10.0 59 4.3 ESE 7 15 4 8 1016.5 1016.5 -
22/12:00am 18.0 14.8 9.9 59 4.3 E 17 28 9 15 1016.7 1016.7 -
 
Date/Time
WST
Temp
°C
App
Temp
°C
Dew
Point
Rel
Hum
%
Delta-T
°C
Wind Press
QNH
hPa
Press
MSL
hPa
Rain
since 9 am
mm
Dir
 
Spd
km/h
Gust
km/h
Spd
kts
Gust
kts
21/11:30pm 16.5 15.5 11.0 70 2.9 ESE 7 13 4 7 1016.9 1016.9 -
21/11:00pm 17.3 16.4 11.3 68 3.2 SE 7 9 4 5 1017.3 1017.3 -
21/10:30pm 17.6 15.8 12.1 70 3.0 SSE 13 17 7 9 1017.6 1017.6 -
21/10:00pm 17.5 15.8 13.6 78 2.2 SSE 15 20 8 11 1018.0 1018.0 -
21/09:30pm 17.6 15.9 13.7 78 2.2 SSE 15 20 8 11 1018.7 1018.7 -
21/09:00pm 18.0 16.8 14.1 78 2.2 SSE 13 20 7 11 1019.3 1019.3 0.0
21/08:30pm 18.2 16.8 13.5 74 2.7 SSE 13 17 7 9 1019.7 1019.7 -
21/08:00pm 18.3 16.8 13.0 71 3.0 SSE 13 20 7 11 1019.7 1019.7 -
21/07:30pm 18.5 17.3 12.7 69 3.2 SSE 11 19 6 10 1019.7 1019.7 -
21/07:00pm 18.8 16.9 11.9 64 3.8 S 13 22 7 12 1019.7 1019.7 -
21/06:30pm 19.3 17.2 11.1 59 4.5 S 13 20 7 11 1019.5 1019.5 -
21/06:00pm 19.9 17.6 10.3 54 5.2 S 13 20 7 11 1019.4 1019.4 -
21/05:30pm 20.7 18.8 10.5 52 5.5 SSW 11 17 6 9 1019.2 1019.2 -
21/05:00pm 20.6 18.8 10.7 53 5.4 SSW 11 17 6 9 1019.3 1019.3 -
21/04:30pm 20.5 17.7 11.4 56 5.0 WSW 17 22 9 12 1019.5 1019.5 -
21/04:00pm 20.9 18.1 11.5 55 5.2 WSW 17 24 9 13 1019.8 1019.8 -
21/03:30pm 20.3 16.9 11.2 56 5.0 WSW 20 28 11 15 1019.9 1019.9 -
21/03:00pm 20.4 17.3 11.6 57 4.9 WSW 19 26 10 14 1020.3 1020.3 -
21/02:30pm 21.1 18.5 12.0 56 5.1 WSW 17 26 9 14 1020.4 1020.4 -
21/02:00pm 20.4 17.2 11.1 55 5.1 WSW 19 26 10 14 1020.6 1020.6 -
21/01:30pm 20.5 17.3 11.2 55 5.1 WSW 19 26 10 14 1020.8 1020.8 -
21/01:00pm 20.1 16.5 10.5 54 5.2 WSW 20 30 11 16 1021.3 1021.3 -
21/12:30pm 20.0 16.5 10.1 53 5.3 WSW 19 24 10 13 1021.5 1021.5 -
21/12:00pm 20.0 16.9 10.4 54 5.2 W 17 22 9 12 1021.5 1021.5 -
21/11:30am 19.8 17.6 10.8 56 4.9 W 13 17 7 9 1021.6 1021.6 62.8
21/11:00am - - - - - - - - - - - 1019.9 -
21/09:00am 17.1 15.9 9.5 61 4.0 S 6 11 3 6 1022.9 1022.9 0.0
21/08:30am 16.2 15.1 9.8 66 3.3 SE 6 11 3 6 1022.8 1022.8 0.0
21/08:00am 14.9 14.2 12.0 83 1.6 ESE 7 11 4 6 1022.6 1022.6 0.0
21/07:30am 13.6 12.9 12.0 90 0.9 S 7 9 4 5 1022.5 1022.5 0.0
21/07:00am 13.2 12.6 12.4 95 0.4 SE 7 9 4 5 1022.3 1022.3 0.0
21/06:30am 12.6 12.0 12.3 98 0.2 SSE 7 11 4 6 1022.1 1022.1 0.0
21/06:00am 12.0 11.4 11.7 98 0.2 SSE 6 9 3 5 1021.9 1021.9 0.0
21/05:30am 11.6 10.6 11.0 96 0.3 SE 7 9 4 5 1021.6 1021.6 0.0
21/05:00am 12.1 10.9 11.6 97 0.3 SSE 9 11 5 6 1021.4 1021.4 0.0
21/04:30am 12.7 11.6 11.9 95 0.4 SSE 9 13 5 7 1021.1 1021.1 0.0
21/04:00am 12.6 11.8 11.8 95 0.4 SSE 7 11 4 6 1020.8 1020.8 0.0
21/03:30am 11.9 11.1 11.0 94 0.5 SE 6 7 3 4 1020.6 1020.6 0.0
21/03:00am 12.4 11.7 11.5 94 0.5 SE 6 7 3 4 1020.3 1020.3 0.0
21/02:30am 12.5 11.7 11.1 91 0.7 SE 6 7 3 4 1020.1 1020.1 0.0
21/02:00am 12.9 12.1 11.0 88 1.0 SE 6 9 3 5 1020.0 1020.0 0.0
21/01:30am 13.8 13.0 11.7 87 1.1 SE 7 9 4 5 1020.0 1020.0 0.0
21/01:00am 14.4 13.3 11.9 85 1.3 SE 9 13 5 7 1019.9 1019.9 0.0
21/12:30am 15.0 13.9 11.8 81 1.7 S 9 13 5 7 1020.3 1020.3 0.0
21/12:00am 15.0 14.6 11.0 77 2.1 SSW 4 6 2 3 1020.4 1020.4 0.0
 
Date/Time
WST
Temp
°C
App
Temp
°C
Dew
Point
Rel
Hum
%
Delta-T
°C
Wind Press
QNH
hPa
Press
MSL
hPa
Rain
since 9 am
mm
Dir
 
Spd
km/h
Gust
km/h
Spd
kts
Gust
kts
20/11:30pm 14.7 14.1 10.3 75 2.3 SSW 4 4 2 2 1020.3 1020.3 0.0
20/11:00pm 15.0 15.1 10.2 73 2.5 CALM 0 4 0 2 1020.3 1020.3 0.0
20/10:30pm 15.5 14.9 10.3 71 2.7 SSW 4 6 2 3 1020.5 1020.5 0.0
20/10:00pm 15.8 14.7 9.9 68 3.1 SSW 6 7 3 4 1020.6 1020.6 0.0
20/09:30pm 16.1 14.8 9.8 66 3.3 SSW 7 9 4 5 1020.8 1020.8 0.0
20/09:00pm 16.3 14.9 9.7 65 3.4 SSW 7 11 4 6 1020.8 1020.8 0.0
20/08:30pm 16.6 15.3 9.8 64 3.6 SSW 7 11 4 6 1020.7 1020.7 0.0
20/08:00pm 16.6 14.9 10.0 65 3.5 SW 9 13 5 7 1020.6 1020.6 0.0
20/07:30pm 16.8 15.3 10.6 67 3.3 SSW 9 15 5 8 1020.4 1020.4 0.0
20/07:00pm 17.1 15.4 10.0 63 3.7 SSW 9 15 5 8 1020.2 1020.2 0.0
20/06:30pm 17.2 15.4 9.6 61 4.0 SSW 9 15 5 8 1020.0 1020.0 0.0
20/06:00pm 17.5 14.3 10.1 62 3.9 SSW 17 26 9 14 1019.7 1019.7 0.0
20/05:30pm 18.1 14.5 10.7 62 4.0 S 20 28 11 15 1019.2 1019.2 0.0
20/05:00pm 18.9 15.8 11.5 62 4.0 SW 19 33 10 18 1019.3 1019.3 0.0
20/04:30pm 18.7 15.4 11.5 63 3.9 SSW 20 33 11 18 1019.1 1019.1 0.0
20/04:00pm 19.7 16.7 12.5 63 4.0 SW 20 35 11 19 1019.0 1019.0 0.0
20/03:30pm 19.8 16.7 12.3 62 4.2 SW 20 28 11 15 1018.7 1018.7 0.0
20/03:00pm 19.3 16.2 12.1 63 4.0 SW 20 30 11 16 1018.5 1018.5 0.0
20/02:30pm 19.3 16.2 12.3 64 3.9 WSW 20 30 11 16 1018.5 1018.5 0.0
20/02:00pm 19.8 16.8 12.6 63 4.0 WSW 20 30 11 16 1018.2 1018.2 0.0
20/01:30pm 19.7 16.6 12.2 62 4.2 WSW 20 28 11 15 1018.3 1018.3 0.0
20/01:00pm 19.0 16.2 12.5 66 3.6 SW 19 24 10 13 1018.3 1018.3 0.0
20/12:30pm 20.0 17.2 12.7 63 4.1 WSW 19 28 10 15 1018.0 1018.0 0.0
20/12:00pm 19.1 16.0 12.1 64 3.9 WSW 20 30 11 16 1017.9 1017.9 0.0
20/11:30am 18.9 16.0 12.9 68 3.4 WSW 20 33 11 18 1017.9 1017.9 0.0
20/11:00am 18.1 15.3 12.5 70 3.1 SSW 19 26 10 14 1018.0 1018.0 0.0
20/10:30am 18.0 15.1 12.2 69 3.2 SW 19 32 10 17 1017.9 1017.9 0.0
20/10:00am 18.1 15.8 11.9 67 3.4 SSW 15 22 8 12 1017.7 1017.7 0.0
20/09:30am 17.3 14.7 12.0 71 2.9 S 17 20 9 11 1017.8 1017.8 0.0
20/09:00am 17.2 14.9 11.7 70 3.0 S 15 26 8 14 1017.8 1017.8 0.2
20/08:30am 16.6 15.4 11.7 73 2.7 S 9 17 5 9 1017.7 1017.7 0.2
20/08:00am 15.6 15.1 12.2 80 1.9 S 6 7 3 4 1017.8 1017.8 0.2
20/07:30am 14.4 14.1 11.6 83 1.5 SSE 4 6 2 3 1017.6 1017.6 0.2
20/07:00am 13.5 13.1 11.2 86 1.2 SE 4 6 2 3 1017.3 1017.3 0.2
20/06:30am 13.2 11.5 11.1 87 1.1 ESE 11 13 6 7 1016.8 1016.8 0.2
20/06:00am 13.8 13.7 12.0 89 1.0 SSW 4 4 2 2 1016.6 1016.6 0.2
20/05:30am 13.4 13.4 11.3 87 1.1 SSW 2 6 1 3 1016.1 1016.1 0.2
20/05:00am 13.7 12.7 11.0 84 1.4 S 7 11 4 6 1015.6 1015.6 0.2
20/04:30am 13.7 12.3 10.9 83 1.5 S 9 13 5 7 1015.6 1015.6 0.2
20/04:00am 13.8 12.4 10.8 82 1.6 S 9 15 5 8 1015.8 1015.8 0.2
20/03:30am 14.0 11.4 10.6 80 1.8 S 15 22 8 12 1015.6 1015.6 0.2
20/03:00am 14.0 12.1 10.4 79 1.9 S 11 15 6 8 1015.6 1015.6 0.2
20/02:30am 13.7 11.8 10.5 81 1.7 S 11 17 6 9 1015.5 1015.5 0.2
20/02:00am 13.7 11.7 10.1 79 1.9 S 11 17 6 9 1015.2 1015.2 0.2
20/01:30am 13.7 11.2 9.6 76 2.1 S 13 20 7 11 1015.5 1015.5 0.2
20/01:00am 13.7 10.8 9.6 76 2.1 S 15 20 8 11 1015.7 1015.7 0.2
20/12:30am 13.9 10.5 9.3 74 2.3 S 17 26 9 14 1016.3 1016.3 0.2
20/12:00am 13.9 10.3 9.7 76 2.2 S 19 28 10 15 1016.4 1016.4 0.2
 
Date/Time
WST
Temp
°C
App
Temp
°C
Dew
Point
Rel
Hum
%
Delta-T
°C
Wind Press
QNH
hPa
Press
MSL
hPa
Rain
since 9 am
mm
Dir
 
Spd
km/h
Gust
km/h
Spd
kts
Gust
kts
19/11:30pm 13.6 10.7 9.8 78 2.0 S 15 24 8 13 1016.5 1016.5 0.2
19/11:00pm 13.5 10.6 9.7 78 1.9 S 15 22 8 12 1016.5 1016.5 0.2
19/10:30pm 13.6 10.7 9.6 77 2.0 S 15 24 8 13 1016.6 1016.6 0.2
19/10:00pm 13.6 10.3 9.6 77 2.0 S 17 26 9 14 1016.5 1016.5 0.0
19/09:30pm 13.9 10.6 9.7 76 2.2 S 17 26 9 14 1016.6 1016.6 0.0
19/09:00pm 14.1 10.8 9.7 75 2.3 S 17 26 9 14 1016.8 1016.8 0.0
19/08:30pm 14.0 11.2 10.0 77 2.1 S 15 22 8 12 1016.6 1016.6 0.0
19/08:00pm 14.2 11.4 10.0 76 2.2 S 15 24 8 13 1016.3 1016.3 0.0
19/07:30pm 14.5 12.1 10.1 75 2.3 S 13 22 7 12 1016.1 1016.1 0.0
19/07:00pm 14.7 12.3 9.9 73 2.5 S 13 24 7 13 1015.7 1015.7 0.0
19/06:30pm 15.2 11.7 10.2 72 2.6 SSE 19 28 10 15 1015.3 1015.3 0.0
19/06:00pm 15.5 11.5 10.3 71 2.7 SE 22 30 12 16 1014.8 1014.8 0.0
19/05:30pm 15.8 11.7 10.1 69 3.0 SE 22 33 12 18 1014.6 1014.6 0.0
19/05:00pm 16.2 11.8 10.5 69 3.0 SSE 24 32 13 17 1014.5 1014.5 0.0
19/04:30pm 16.0 11.1 11.4 74 2.5 SE 28 41 15 22 1014.3 1014.3 0.0
19/04:00pm 15.6 12.2 12.4 81 1.8 SSE 22 35 12 19 1014.3 1014.3 0.0
19/03:30pm 15.5 11.9 13.0 85 1.4 SSE 24 33 13 18 1014.3 1014.3 0.0
19/03:00pm 15.1 12.1 13.6 91 0.8 SE 22 33 12 18 1014.2 1014.2 0.0
19/02:30pm 14.6 12.1 14.0 96 0.3 SSE 20 30 11 16 1014.4 1014.4 0.0

Other Formats:

Comma delimited format used in spreadsheet applications
http://www.bom.gov.au/fwo/IDW60801/IDW60801.94605.axf

JavaScript Object Notation format (JSON) in row-major order
http://www.bom.gov.au/fwo/IDW60801/IDW60801.94605.json